Time;durP1;ratioP1;P1;durP2;ratioP2;P2;SDS_P1;SDS_P2;PMS_P1;PMS_P2;Temp;Humidity;BMP_temperature;BMP_pressure;BME280_temperature;BME280_humidity;BME280_pressure;Samples;Min_cycle;Max_cycle;Signal;HPM_P1;HPM_P2
2021/09/11 00:01:04;;;;;;;17.93;10.80;;;18.60;99.90;;;;;;4973722;28;20183;-83
2021/09/11 00:03:30;;;;;;;20.77;11.10;;;18.60;99.90;;;;;;4958477;28;20730;-84
2021/09/11 00:05:56;;;;;;;18.67;10.37;;;18.60;99.90;;;;;;4957761;28;20193;-83
2021/09/11 00:08:21;;;;;;;18.70;10.77;;;18.60;99.90;;;;;;4974966;28;20578;-84
2021/09/11 00:10:47;;;;;;;21.50;10.50;;;18.70;99.90;;;;;;4956187;28;20195;-84
2021/09/11 00:13:13;;;;;;;18.83;10.13;;;18.80;99.90;;;;;;4973341;28;20199;-85
2021/09/11 00:15:38;;;;;;;22.17;9.87;;;18.80;99.90;;;;;;4975534;28;20210;-83
2021/09/11 00:18:05;;;;;;;17.70;10.68;;;18.80;99.90;;;;;;4973868;28;20840;-83
2021/09/11 00:20:32;;;;;;;16.80;9.70;;;18.60;99.90;;;;;;4973721;28;20181;-83
2021/09/11 00:22:59;;;;;;;16.37;9.10;;;18.70;99.90;;;;;;4955249;28;20199;-83
2021/09/11 00:25:25;;;;;;;18.83;9.23;;;18.80;99.90;;;;;;4973321;28;20212;-83
2021/09/11 00:27:51;;;;;;;16.63;8.70;;;18.80;99.90;;;;;;4972166;28;20182;-83
2021/09/11 00:30:17;;;;;;;16.77;8.60;;;18.70;99.90;;;;;;4943570;28;20217;-84
2021/09/11 00:32:43;;;;;;;17.67;9.00;;;18.60;99.90;;;;;;4956722;28;20653;-84
2021/09/11 00:35:14;;;;;;;17.30;8.70;;;18.60;99.90;;;;;;4957725;28;20200;-83
2021/09/11 00:37:41;;;;;;;13.23;7.83;;;18.60;99.90;;;;;;4957867;28;20216;-83
2021/09/11 00:40:08;;;;;;;19.07;8.43;;;18.60;99.90;;;;;;4972005;28;20201;-85
2021/09/11 00:42:35;;;;;;;15.57;8.03;;;18.60;99.90;;;;;;4956582;28;20182;-84
2021/09/11 00:45:01;;;;;;;13.90;8.20;;;18.50;99.90;;;;;;4956623;28;20270;-85
2021/09/11 00:47:27;;;;;;;17.23;8.27;;;18.50;99.90;;;;;;4973125;28;20872;-85
2021/09/11 00:49:53;;;;;;;16.73;8.17;;;18.50;99.90;;;;;;4958178;28;20227;-83
2021/09/11 00:52:21;;;;;;;16.43;8.50;;;18.50;99.90;;;;;;4971370;28;20217;-84
2021/09/11 00:54:49;;;;;;;17.30;8.40;;;18.40;99.90;;;;;;4958892;28;20275;-84
2021/09/11 00:57:16;;;;;;;14.77;8.17;;;18.40;99.90;;;;;;4955324;28;20304;-83
2021/09/11 00:59:41;;;;;;;17.47;8.47;;;18.40;99.90;;;;;;4955441;28;20661;-83
2021/09/11 01:02:08;;;;;;;14.63;8.10;;;18.40;99.90;;;;;;4973546;28;20178;-82
2021/09/11 01:04:34;;;;;;;17.70;8.27;;;18.40;99.90;;;;;;4972584;28;20212;-82
2021/09/11 01:07:00;;;;;;;14.50;8.33;;;18.40;99.90;;;;;;4958117;28;20292;-82
2021/09/11 01:09:27;;;;;;;17.17;9.40;;;18.40;99.90;;;;;;4938608;28;20504;-82
2021/09/11 01:11:53;;;;;;;17.83;8.03;;;18.20;99.90;;;;;;4956436;28;20192;-83
2021/09/11 01:14:19;;;;;;;16.77;8.10;;;18.30;99.90;;;;;;4973233;28;20219;-83
2021/09/11 01:16:45;;;;;;;16.47;7.90;;;18.30;99.90;;;;;;4969749;28;20810;-83
2021/09/11 01:19:10;;;;;;;17.80;7.50;;;18.20;99.90;;;;;;4974329;28;20622;-83
2021/09/11 01:21:36;;;;;;;15.37;7.80;;;18.20;99.90;;;;;;4971320;28;20177;-83
2021/09/11 01:24:02;;;;;;;14.73;7.27;;;18.20;99.90;;;;;;4960291;28;20646;-83
2021/09/11 01:26:28;;;;;;;19.83;7.87;;;18.30;99.90;;;;;;4966456;28;20643;-82
2021/09/11 01:28:54;;;;;;;12.93;7.53;;;18.30;99.90;;;;;;4952487;28;20194;-83
2021/09/11 01:31:19;;;;;;;13.97;7.20;;;18.30;99.90;;;;;;4972729;28;20545;-84
2021/09/11 01:33:45;;;;;;;15.57;7.73;;;18.30;99.90;;;;;;4955792;28;20188;-83
2021/09/11 01:36:11;;;;;;;17.03;7.80;;;18.30;99.90;;;;;;4955744;28;20200;-84
2021/09/11 01:38:37;;;;;;;14.77;7.63;;;18.40;99.90;;;;;;4976878;28;20574;-84
2021/09/11 01:41:02;;;;;;;18.30;8.43;;;18.30;99.90;;;;;;4972401;28;20225;-83
2021/09/11 01:43:30;;;;;;;17.47;7.07;;;18.30;99.90;;;;;;4975061;28;20229;-85
2021/09/11 01:45:57;;;;;;;16.57;7.40;;;18.30;99.90;;;;;;4959761;28;20197;-83
2021/09/11 01:48:23;;;;;;;14.47;7.30;;;18.30;99.90;;;;;;4974172;28;20357;-83
2021/09/11 01:50:48;;;;;;;16.87;7.40;;;18.40;99.90;;;;;;4961223;28;20258;-83
2021/09/11 01:53:14;;;;;;;17.40;7.60;;;18.40;99.90;;;;;;4974162;28;20544;-84
2021/09/11 01:55:40;;;;;;;14.47;7.37;;;18.30;99.90;;;;;;4959951;28;20242;-84
2021/09/11 01:58:06;;;;;;;15.67;7.37;;;18.30;99.90;;;;;;4940316;28;20215;-84
2021/09/11 02:00:31;;;;;;;18.00;8.70;;;18.30;99.90;;;;;;4959432;28;20193;-84
2021/09/11 02:02:58;;;;;;;17.93;8.20;;;18.30;99.90;;;;;;4959703;28;20215;-82
2021/09/11 02:05:23;;;;;;;22.27;7.97;;;18.40;99.90;;;;;;4974409;28;20271;-83
2021/09/11 02:07:49;;;;;;;19.77;8.27;;;18.50;99.90;;;;;;4977057;28;20190;-83
2021/09/11 02:10:17;;;;;;;18.80;8.77;;;18.50;99.90;;;;;;4957924;28;20314;-82
2021/09/11 02:12:44;;;;;;;15.30;7.07;;;18.50;99.90;;;;;;4978015;28;20515;-83
2021/09/11 02:15:10;;;;;;;17.47;7.93;;;18.70;99.90;;;;;;4974156;28;20622;-82
2021/09/11 02:17:38;;;;;;;15.50;7.70;;;18.70;99.90;;;;;;4974248;28;20258;-82
2021/09/11 02:20:05;;;;;;;17.37;7.90;;;18.70;99.90;;;;;;4961361;28;20629;-83
2021/09/11 02:22:30;;;;;;;18.10;7.27;;;18.80;99.90;;;;;;4976363;28;20274;-83
2021/09/11 02:24:56;;;;;;;12.03;6.13;;;18.80;99.90;;;;;;4972703;28;20273;-83
2021/09/11 02:27:22;;;;;;;16.07;6.70;;;18.80;99.90;;;;;;4942872;28;20364;-83
2021/09/11 02:29:47;;;;;;;14.63;6.40;;;18.90;99.90;;;;;;4959578;28;20720;-83
2021/09/11 02:32:13;;;;;;;12.40;6.33;;;18.90;99.90;;;;;;4974211;28;20179;-84
2021/09/11 02:34:39;;;;;;;18.43;6.83;;;18.90;99.90;;;;;;4975619;28;20210;-82
2021/09/11 02:37:06;;;;;;;13.87;5.70;;;18.90;99.90;;;;;;4974075;28;20194;-83
2021/09/11 02:39:32;;;;;;;11.87;5.83;;;18.90;99.90;;;;;;4976553;28;20182;-83
2021/09/11 02:41:58;;;;;;;15.50;6.10;;;18.90;99.90;;;;;;4945591;28;20189;-83
2021/09/11 02:44:24;;;;;;;13.13;5.70;;;18.80;99.90;;;;;;4975241;28;20206;-83
2021/09/11 02:46:50;;;;;;;16.07;5.53;;;18.90;99.90;;;;;;4975824;28;20646;-83
2021/09/11 02:49:15;;;;;;;14.90;5.67;;;18.90;99.90;;;;;;4974177;28;20193;-82
2021/09/11 02:51:41;;;;;;;11.80;4.90;;;18.90;99.90;;;;;;4958946;28;20206;-84
2021/09/11 02:54:07;;;;;;;13.07;4.83;;;18.90;99.90;;;;;;4974779;28;20569;-82
2021/09/11 02:56:32;;;;;;;11.30;5.17;;;18.90;99.90;;;;;;4975940;28;20694;-82
2021/09/11 02:58:58;;;;;;;17.30;4.97;;;18.80;99.90;;;;;;4958171;28;20190;-83
2021/09/11 03:01:24;;;;;;;15.63;4.93;;;18.80;99.90;;;;;;4963991;28;20172;-82
2021/09/11 03:03:51;;;;;;;17.20;5.37;;;18.80;99.90;;;;;;4991183;28;20214;-82
2021/09/11 03:06:16;;;;;;;12.07;4.73;;;18.80;99.90;;;;;;4995236;28;20234;-83
2021/09/11 03:08:42;;;;;;;15.60;5.20;;;18.90;99.90;;;;;;4974795;28;20181;-80
2021/09/11 03:11:08;;;;;;;10.80;4.57;;;18.90;99.90;;;;;;4980909;28;20197;-83
2021/09/11 03:13:34;;;;;;;15.43;5.00;;;19.00;99.90;;;;;;4974675;28;20238;-83
2021/09/11 03:16:00;;;;;;;12.37;4.67;;;18.90;99.90;;;;;;4976545;28;20210;-83
2021/09/11 03:18:25;;;;;;;13.80;4.97;;;18.90;99.90;;;;;;4943674;28;20202;-83
2021/09/11 03:20:51;;;;;;;12.73;5.13;;;18.90;99.90;;;;;;4940786;28;20542;-83
2021/09/11 03:23:17;;;;;;;13.50;5.00;;;18.90;99.90;;;;;;4976935;28;20183;-82
2021/09/11 03:25:43;;;;;;;11.47;4.73;;;19.00;99.90;;;;;;4973882;28;20187;-83
2021/09/11 03:28:10;;;;;;;10.63;4.63;;;19.10;99.90;;;;;;4975789;28;20201;-83
2021/09/11 03:30:36;;;;;;;12.87;4.80;;;19.00;99.90;;;;;;4976346;28;20190;-83
2021/09/11 03:33:02;;;;;;;15.10;5.23;;;19.00;99.90;;;;;;4975731;28;20191;-83
2021/09/11 03:35:28;;;;;;;14.97;5.40;;;19.10;99.90;;;;;;4958833;28;20302;-84
2021/09/11 03:37:54;;;;;;;15.30;4.97;;;19.10;99.90;;;;;;4959443;28;20258;-83
2021/09/11 03:40:20;;;;;;;13.33;5.00;;;19.10;99.90;;;;;;4941513;28;20191;-83
2021/09/11 03:42:46;;;;;;;13.67;4.97;;;19.10;99.90;;;;;;4974679;28;20634;-83
2021/09/11 03:45:12;;;;;;;12.87;5.27;;;19.10;99.90;;;;;;4975089;28;20202;-84
2021/09/11 03:47:38;;;;;;;21.53;5.70;;;19.00;99.90;;;;;;4975639;28;20175;-82
2021/09/11 03:50:05;;;;;;;16.07;6.03;;;18.90;99.90;;;;;;4974127;28;20182;-83
2021/09/11 03:52:31;;;;;;;14.00;5.50;;;18.90;99.90;;;;;;4976810;28;20335;-83
2021/09/11 03:54:57;;;;;;;16.03;5.90;;;18.90;99.90;;;;;;4958819;28;20331;-84
2021/09/11 03:57:22;;;;;;;16.73;6.30;;;18.90;99.90;;;;;;4973292;28;20193;-84
2021/09/11 03:59:48;;;;;;;16.27;6.07;;;18.90;99.90;;;;;;4975359;28;20530;-84
2021/09/11 04:02:14;;;;;;;16.70;6.27;;;19.00;99.90;;;;;;4972798;28;20548;-84
2021/09/11 04:04:40;;;;;;;19.03;5.80;;;19.00;99.90;;;;;;4973717;28;20207;-84
2021/09/11 04:07:06;;;;;;;15.93;6.10;;;19.00;99.90;;;;;;4960408;28;20194;-84
2021/09/11 04:09:31;;;;;;;15.63;6.17;;;19.00;99.90;;;;;;4969382;28;20182;-83
2021/09/11 04:11:57;;;;;;;16.53;6.47;;;19.00;99.90;;;;;;4959865;28;20192;-83
2021/09/11 04:14:23;;;;;;;12.90;6.23;;;18.90;99.90;;;;;;4956376;28;20203;-82
2021/09/11 04:16:48;;;;;;;13.50;6.73;;;18.90;99.90;;;;;;4960468;28;20224;-83
2021/09/11 04:19:14;;;;;;;17.30;6.67;;;18.90;99.90;;;;;;4943348;28;20179;-84
2021/09/11 04:21:40;;;;;;;13.83;6.40;;;18.90;99.90;;;;;;4968555;28;20642;-83
2021/09/11 04:24:07;;;;;;;14.33;6.60;;;18.80;99.90;;;;;;4974373;28;20638;-85
2021/09/11 04:26:34;;;;;;;12.13;6.40;;;18.90;99.90;;;;;;4956044;28;20173;-84
2021/09/11 04:29:00;;;;;;;16.53;7.73;;;18.90;99.90;;;;;;4972904;28;20188;-84
2021/09/11 04:31:25;;;;;;;13.07;6.10;;;18.90;99.90;;;;;;4975135;28;20196;-85
2021/09/11 04:33:51;;;;;;;17.17;6.77;;;18.80;99.90;;;;;;4971382;28;20235;-84
2021/09/11 04:36:17;;;;;;;13.87;6.70;;;18.80;99.90;;;;;;4959641;28;20662;-83
2021/09/11 04:38:43;;;;;;;16.37;7.10;;;18.80;99.90;;;;;;4968581;28;20183;-83
2021/09/11 04:41:09;;;;;;;18.03;7.13;;;18.80;99.90;;;;;;4974541;28;20668;-84
2021/09/11 04:43:34;;;;;;;16.07;7.00;;;18.90;99.90;;;;;;4960432;28;20180;-85
2021/09/11 04:46:01;;;;;;;21.63;7.07;;;18.80;99.90;;;;;;4972602;28;20183;-83
2021/09/11 04:48:26;;;;;;;17.70;7.07;;;18.80;99.90;;;;;;4959886;28;20265;-84
2021/09/11 04:50:53;;;;;;;17.37;6.47;;;18.80;99.90;;;;;;4956158;28;20225;-84
2021/09/11 04:53:18;;;;;;;16.53;7.40;;;18.70;99.90;;;;;;4972452;28;20272;-84
2021/09/11 04:55:44;;;;;;;16.03;6.90;;;18.70;99.90;;;;;;4940782;28;20827;-84
2021/09/11 04:58:11;;;;;;;18.13;7.53;;;18.80;99.90;;;;;;4973247;28;20672;-84
2021/09/11 05:00:36;;;;;;;16.73;6.97;;;18.80;99.90;;;;;;4973692;28;20175;-85
2021/09/11 05:03:02;;;;;;;15.93;7.13;;;18.80;99.90;;;;;;4956202;28;20551;-84
2021/09/11 05:05:28;;;;;;;14.87;7.10;;;18.70;99.90;;;;;;4974661;28;20702;-84
2021/09/11 05:07:55;;;;;;;15.07;7.33;;;18.60;99.90;;;;;;4959093;28;20891;-84
2021/09/11 05:10:21;;;;;;;15.60;6.83;;;18.60;99.90;;;;;;4954079;28;20231;-85
2021/09/11 05:12:46;;;;;;;14.60;6.57;;;18.50;99.90;;;;;;4974842;28;20200;-82
2021/09/11 05:15:12;;;;;;;13.10;6.33;;;18.60;99.90;;;;;;4975327;28;20205;-84
2021/09/11 05:17:38;;;;;;;16.20;6.63;;;18.60;99.90;;;;;;4964345;28;20724;-84
2021/09/11 05:20:05;;;;;;;15.53;6.47;;;18.60;99.90;;;;;;4975587;28;20657;-85
2021/09/11 05:22:31;;;;;;;13.03;6.60;;;18.60;99.90;;;;;;4963909;28;20197;-85
2021/09/11 05:24:57;;;;;;;16.20;6.63;;;18.60;99.90;;;;;;4977292;28;20189;-84
2021/09/11 05:27:22;;;;;;;14.87;6.67;;;18.70;99.90;;;;;;4975659;28;20187;-84
2021/09/11 05:29:48;;;;;;;15.27;6.90;;;18.70;99.90;;;;;;4977952;28;20239;-84
2021/09/11 05:32:14;;;;;;;14.93;6.50;;;18.70;99.90;;;;;;4975725;28;20199;-84
2021/09/11 05:34:39;;;;;;;16.00;6.53;;;18.70;99.90;;;;;;4963130;28;20199;-83
2021/09/11 05:37:05;;;;;;;15.97;6.50;;;18.70;99.90;;;;;;4963407;28;20553;-84
2021/09/11 05:39:31;;;;;;;13.77;6.13;;;18.80;99.90;;;;;;4977389;28;20649;-84
2021/09/11 05:41:57;;;;;;;17.57;6.30;;;18.80;99.90;;;;;;4962600;28;20582;-84
2021/09/11 05:44:23;;;;;;;13.03;6.03;;;18.70;99.90;;;;;;4943961;28;20192;-85
2021/09/11 05:46:48;;;;;;;15.00;6.53;;;18.70;99.90;;;;;;4962168;28;20586;-84
2021/09/11 05:49:14;;;;;;;16.40;6.90;;;18.80;99.90;;;;;;4961795;28;20195;-84
2021/09/11 05:51:40;;;;;;;12.97;6.00;;;18.80;99.90;;;;;;4976567;28;20183;-85
2021/09/11 05:54:05;;;;;;;17.03;6.10;;;18.90;99.90;;;;;;4960568;28;20231;-85
2021/09/11 05:56:31;;;;;;;16.93;6.13;;;18.90;99.90;;;;;;4943632;28;20188;-84
2021/09/11 05:58:57;;;;;;;14.20;6.10;;;19.00;99.90;;;;;;4959952;28;20690;-85
2021/09/11 06:01:23;;;;;;;12.87;5.93;;;19.00;99.90;;;;;;4978187;28;20179;-83
2021/09/11 06:03:49;;;;;;;14.47;6.03;;;19.00;99.90;;;;;;4976514;28;20394;-83
2021/09/11 06:06:14;;;;;;;16.40;6.50;;;19.10;99.90;;;;;;4962852;28;20192;-83
2021/09/11 06:08:40;;;;;;;14.27;6.30;;;19.10;99.90;;;;;;4973187;28;20203;-84
2021/09/11 06:11:07;;;;;;;11.53;6.20;;;19.20;99.90;;;;;;4976397;28;20563;-84
2021/09/11 06:13:34;;;;;;;17.27;5.97;;;19.20;99.90;;;;;;4960531;28;20192;-83
2021/09/11 06:16:02;;;;;;;14.10;6.00;;;19.20;99.90;;;;;;4979511;28;20206;-83
2021/09/11 06:18:28;;;;;;;12.10;4.93;;;19.10;99.90;;;;;;4965616;28;20178;-82
2021/09/11 06:20:54;;;;;;;11.17;5.20;;;19.10;99.90;;;;;;4957560;28;20257;-84
2021/09/11 06:23:20;;;;;;;14.20;5.70;;;19.20;99.90;;;;;;4977642;28;20257;-84
2021/09/11 06:25:45;;;;;;;10.50;5.50;;;19.30;99.90;;;;;;4942981;28;20195;-83
2021/09/11 06:28:11;;;;;;;12.10;5.00;;;19.40;99.90;;;;;;4949961;28;20194;-83
2021/09/11 06:30:37;;;;;;;14.07;5.53;;;19.40;99.90;;;;;;4976470;28;20284;-84
2021/09/11 06:33:03;;;;;;;12.23;5.30;;;19.40;99.90;;;;;;4960244;28;20244;-84
2021/09/11 06:35:28;;;;;;;11.97;5.30;;;19.50;99.90;;;;;;4976167;28;20203;-85
2021/09/11 06:37:54;;;;;;;14.80;5.57;;;19.30;99.90;;;;;;4975717;28;20178;-83
2021/09/11 06:40:20;;;;;;;14.70;5.73;;;19.30;99.90;;;;;;4966556;28;20662;-83
2021/09/11 06:42:47;;;;;;;13.40;5.63;;;19.30;99.90;;;;;;4974955;28;20769;-81
2021/09/11 06:45:13;;;;;;;14.83;5.57;;;19.30;99.90;;;;;;4943864;28;20190;-83
2021/09/11 06:47:38;;;;;;;14.00;5.73;;;19.40;99.90;;;;;;4976649;28;20197;-84
2021/09/11 06:50:04;;;;;;;11.60;5.60;;;19.40;99.90;;;;;;4958716;28;20200;-84
2021/09/11 06:52:30;;;;;;;16.23;5.70;;;19.50;99.90;;;;;;4944172;28;20190;-84
2021/09/11 06:54:56;;;;;;;10.50;4.80;;;19.60;99.90;;;;;;4975390;28;20275;-84
2021/09/11 06:57:21;;;;;;;10.73;5.53;;;19.70;99.90;;;;;;4958696;28;20190;-85
2021/09/11 06:59:47;;;;;;;13.43;5.13;;;19.80;99.90;;;;;;4960426;28;20603;-85
2021/09/11 07:02:13;;;;;;;14.90;4.90;;;20.10;99.90;;;;;;4941397;28;20277;-83
2021/09/11 07:04:39;;;;;;;12.10;4.60;;;20.20;99.90;;;;;;4957848;28;20256;-83
2021/09/11 07:07:07;;;;;;;10.23;4.77;;;20.60;99.90;;;;;;4974751;28;20190;-83
2021/09/11 07:09:33;;;;;;;11.60;4.90;;;20.80;99.90;;;;;;4973869;28;20191;-83
2021/09/11 07:11:58;;;;;;;13.13;4.80;;;20.90;99.90;;;;;;4961400;28;20266;-85
2021/09/11 07:14:24;;;;;;;9.53;4.50;;;20.90;99.90;;;;;;4963934;28;20686;-82
2021/09/11 07:16:50;;;;;;;10.97;4.50;;;21.00;99.90;;;;;;4961963;28;20550;-84
2021/09/11 07:19:15;;;;;;;14.60;4.33;;;21.00;99.90;;;;;;4977248;28;20206;-83
2021/09/11 07:21:41;;;;;;;13.10;4.23;;;21.00;99.90;;;;;;4958484;28;20201;-85
2021/09/11 07:24:07;;;;;;;11.97;4.63;;;20.80;99.90;;;;;;4964176;28;20167;-84
2021/09/11 07:26:33;;;;;;;10.93;4.50;;;20.80;99.90;;;;;;4975486;28;20242;-83
2021/09/11 07:28:58;;;;;;;10.67;4.33;;;20.80;99.90;;;;;;4972133;28;20180;-83
2021/09/11 07:31:24;;;;;;;11.47;4.30;;;20.80;99.90;;;;;;4972107;28;20184;-83
2021/09/11 07:33:50;;;;;;;10.50;4.33;;;20.80;99.90;;;;;;4957210;28;20658;-84
2021/09/11 07:36:16;;;;;;;10.00;4.60;;;20.90;99.90;;;;;;4973195;28;20646;-82
2021/09/11 07:38:42;;;;;;;11.63;4.53;;;21.00;99.90;;;;;;4973785;28;20266;-83
2021/09/11 07:41:08;;;;;;;9.83;4.17;;;21.10;99.90;;;;;;4975670;28;20189;-83
2021/09/11 07:43:34;;;;;;;13.07;4.10;;;21.10;99.90;;;;;;4982733;28;20197;-83
2021/09/11 07:46:00;;;;;;;9.10;4.10;;;21.10;99.90;;;;;;4971417;28;20193;-86
2021/09/11 07:48:26;;;;;;;11.73;4.03;;;21.20;99.90;;;;;;4978105;28;20655;-83
2021/09/11 07:50:52;;;;;;;9.87;3.80;;;21.20;99.90;;;;;;4957700;28;20688;-83
2021/09/11 07:53:18;;;;;;;10.13;4.00;;;21.30;99.90;;;;;;4971097;28;20226;-84
2021/09/11 07:55:44;;;;;;;9.00;4.00;;;21.40;99.90;;;;;;4971323;28;20205;-84
2021/09/11 07:58:10;;;;;;;9.40;3.90;;;21.50;99.90;;;;;;4960155;28;20372;-84
2021/09/11 08:00:36;;;;;;;10.23;3.90;;;21.70;99.90;;;;;;4972834;28;20187;-85
2021/09/11 08:03:02;;;;;;;12.43;4.60;;;21.80;99.90;;;;;;4940484;28;20237;-84
2021/09/11 08:05:27;;;;;;;9.00;4.33;;;21.80;99.90;;;;;;4974598;28;20202;-84
2021/09/11 08:07:53;;;;;;;9.30;4.27;;;22.00;99.90;;;;;;4954906;28;20177;-85
2021/09/11 08:10:20;;;;;;;14.63;4.63;;;22.00;99.90;;;;;;4946296;28;20186;-87
2021/09/11 08:12:47;;;;;;;10.10;3.50;;;22.00;99.90;;;;;;4975099;28;20200;-85
2021/09/11 08:15:13;;;;;;;9.53;4.20;;;22.20;99.90;;;;;;4944175;28;20219;-84
2021/09/11 08:17:39;;;;;;;10.03;4.00;;;22.40;99.90;;;;;;4943130;28;20190;-85
2021/09/11 08:20:05;;;;;;;9.20;3.80;;;22.90;99.90;;;;;;4957100;28;20185;-85
2021/09/11 08:22:31;;;;;;;7.60;4.27;;;23.30;99.90;;;;;;4959328;28;20186;-84
2021/09/11 08:24:57;;;;;;;11.27;4.27;;;23.30;99.90;;;;;;4957101;28;20186;-84
2021/09/11 08:27:24;;;;;;;11.00;3.97;;;23.20;99.90;;;;;;4956919;28;20205;-84
2021/09/11 08:29:50;;;;;;;12.03;3.70;;;23.40;99.90;;;;;;4972050;28;20285;-85
2021/09/11 08:32:16;;;;;;;10.23;3.90;;;23.90;99.90;;;;;;4972190;28;20265;-83
2021/09/11 08:34:42;;;;;;;8.73;3.60;;;24.50;99.90;;;;;;4976525;28;20693;-83
2021/09/11 08:37:08;;;;;;;11.30;3.53;;;24.80;99.90;;;;;;4974000;28;20318;-83
2021/09/11 08:39:33;;;;;;;9.50;3.67;;;24.70;99.90;;;;;;4973600;28;20191;-85
2021/09/11 08:42:01;;;;;;;9.57;3.70;;;24.60;99.90;;;;;;4961699;28;20175;-84
2021/09/11 08:44:27;;;;;;;10.60;3.90;;;24.50;99.90;;;;;;4957038;28;20665;-83
2021/09/11 08:46:54;;;;;;;8.43;4.30;;;24.30;99.90;;;;;;4973239;28;20187;-83
2021/09/11 08:49:21;;;;;;;13.00;4.67;;;24.10;99.90;;;;;;4973089;28;20254;-83
2021/09/11 08:51:46;;;;;;;8.03;3.77;;;24.10;99.90;;;;;;4973159;28;20652;-84
2021/09/11 08:54:18;;;;;;;10.93;4.33;;;24.10;99.90;;;;;;4942292;28;20245;-85
2021/09/11 08:56:45;;;;;;;11.13;4.47;;;23.90;99.90;;;;;;4966153;28;20183;-83
2021/09/11 08:59:14;;;;;;;9.03;4.03;;;23.80;99.90;;;;;;4972009;28;20175;-85
2021/09/11 09:01:41;;;;;;;11.40;4.90;;;23.90;99.90;;;;;;4938362;28;20205;-83
2021/09/11 09:04:07;;;;;;;11.43;4.83;;;23.90;99.90;;;;;;4960624;28;20225;-84
2021/09/11 09:06:35;;;;;;;8.77;4.40;;;23.90;99.90;;;;;;4972211;28;20211;-85
2021/09/11 09:09:12;;;;;;;10.57;4.63;;;23.80;99.90;;;;;;4956789;28;20198;-83
2021/09/11 09:11:43;;;;;;;9.20;4.50;;;23.70;99.90;;;;;;4973093;28;20606;-83
2021/09/11 09:14:15;;;;;;;10.30;4.70;;;23.60;99.90;;;;;;4973784;28;20225;-84
2021/09/11 09:16:43;;;;;;;10.23;4.60;;;23.30;99.90;;;;;;4957757;28;20198;-83
2021/09/11 09:19:11;;;;;;;10.33;4.70;;;23.20;99.90;;;;;;4973706;28;20213;-83
2021/09/11 09:21:38;;;;;;;14.23;4.70;;;23.10;99.90;;;;;;4974170;28;20229;-84
2021/09/11 09:24:08;;;;;;;11.13;5.10;;;23.00;99.90;;;;;;4971230;28;20191;-83
2021/09/11 09:26:54;;;;;;;11.07;5.20;;;22.80;99.90;;;;;;4957833;28;20197;-83
2021/09/11 09:29:21;;;;;;;10.57;4.90;;;22.30;99.90;;;;;;4973695;28;20237;-83
2021/09/11 09:31:49;;;;;;;10.33;5.17;;;22.20;99.90;;;;;;4974367;28;20182;-83
2021/09/11 09:34:38;;;;;;;10.33;5.53;;;22.20;99.90;;;;;;4960694;28;20677;-83
2021/09/11 09:37:15;;;;;;;10.47;5.00;;;22.30;99.90;;;;;;4968050;28;20190;-84
2021/09/11 09:39:47;;;;;;;11.73;5.50;;;22.30;99.90;;;;;;4955306;28;20557;-84
2021/09/11 09:42:15;;;;;;;12.50;5.33;;;22.30;99.90;;;;;;4971935;28;20280;-83
2021/09/11 09:44:44;;;;;;;8.93;5.00;;;22.10;99.90;;;;;;4973410;28;20272;-83
2021/09/11 09:47:15;;;;;;;10.67;5.00;;;22.00;99.90;;;;;;4973567;28;20314;-84
2021/09/11 09:50:02;;;;;;;11.43;4.77;;;21.80;99.90;;;;;;4972308;28;20199;-83
2021/09/11 09:52:28;;;;;;;9.27;5.23;;;21.90;99.90;;;;;;4973216;28;20200;-83
2021/09/11 09:54:56;;;;;;;8.83;4.93;;;21.90;99.90;;;;;;4954797;28;20594;-83
2021/09/11 09:57:22;;;;;;;9.10;5.07;;;22.00;99.90;;;;;;4955802;28;20698;-83
2021/09/11 09:59:50;;;;;;;12.03;5.13;;;22.10;99.90;;;;;;4942794;28;20638;-83
2021/09/11 10:02:16;;;;;;;11.03;5.13;;;22.20;99.90;;;;;;4975661;28;20274;-83
2021/09/11 10:04:42;;;;;;;9.60;4.67;;;22.30;99.90;;;;;;4961660;28;20202;-84
2021/09/11 10:07:09;;;;;;;9.00;5.40;;;22.50;99.90;;;;;;4977358;28;20560;-85
2021/09/11 10:09:36;;;;;;;11.43;5.50;;;22.60;99.90;;;;;;4977866;28;20198;-83
2021/09/11 10:12:02;;;;;;;10.10;5.40;;;22.70;99.90;;;;;;4961255;28;20176;-83
2021/09/11 10:14:33;;;;;;;10.70;5.30;;;22.80;99.90;;;;;;4973955;28;20236;-85
2021/09/11 10:17:00;;;;;;;12.20;5.77;;;23.00;99.90;;;;;;4956478;28;20649;-83
2021/09/11 10:19:29;;;;;;;13.17;4.73;;;23.20;99.90;;;;;;4972232;28;20194;-84
2021/09/11 10:22:24;;;;;;;9.67;4.30;;;23.30;99.90;;;;;;4974044;28;20198;-83
2021/09/11 10:25:02;;;;;;;8.97;4.47;;;23.40;99.90;;;;;;4974963;28;20720;-84
2021/09/11 10:27:40;;;;;;;10.33;4.47;;;23.40;99.90;;;;;;4973734;28;20261;-84
2021/09/11 10:30:13;;;;;;;7.93;4.33;;;23.40;99.90;;;;;;4974836;28;20233;-85
2021/09/11 10:32:46;;;;;;;11.43;4.80;;;23.00;99.90;;;;;;4973291;28;20265;-85
2021/09/11 10:35:23;;;;;;;10.53;4.40;;;23.00;99.90;;;;;;4975109;28;20209;-83
2021/09/11 10:37:54;;;;;;;10.17;4.33;;;23.00;99.90;;;;;;4956490;28;20735;-83
2021/09/11 10:40:30;;;;;;;8.17;5.30;;;23.20;99.90;;;;;;4974263;28;20241;-85
2021/09/11 10:43:29;;;;;;;11.43;5.63;;;23.40;99.90;;;;;;4980591;28;20186;-83
2021/09/11 10:46:02;;;;;;;13.13;5.13;;;23.40;99.90;;;;;;4977473;28;20190;-83
2021/09/11 10:48:42;;;;;;;13.80;6.07;;;23.40;99.90;;;;;;4953377;28;20185;-84
2021/09/11 10:51:30;;;;;;;11.33;6.37;;;23.30;99.90;;;;;;4974996;28;20695;-84
2021/09/11 10:53:57;;;;;;;12.93;5.80;;;23.40;99.90;;;;;;4975176;28;20599;-84
2021/09/11 10:56:26;;;;;;;13.40;7.03;;;23.60;99.90;;;;;;4957609;28;20226;-83
2021/09/11 10:59:14;;;;;;;13.10;7.23;;;23.80;99.90;;;;;;4976683;28;20180;-84
2021/09/11 11:02:17;;;;;;;13.37;7.83;;;24.00;99.90;;;;;;4958778;28;20646;-83
2021/09/11 11:04:49;;;;;;;12.37;7.60;;;24.10;99.90;;;;;;4974201;28;20189;-85
2021/09/11 11:07:19;;;;;;;15.73;8.03;;;24.20;99.90;;;;;;4957259;28;20192;-84
2021/09/11 11:09:58;;;;;;;12.13;7.20;;;24.50;99.90;;;;;;4975459;28;20218;-85
2021/09/11 11:12:44;;;;;;;11.97;6.57;;;25.10;99.90;;;;;;4959861;28;20183;-84
2021/09/11 11:15:13;;;;;;;11.70;6.60;;;25.70;99.90;;;;;;4973118;28;20215;-82
2021/09/11 11:17:43;;;;;;;11.77;6.23;;;25.90;99.90;;;;;;4974892;28;20326;-84
2021/09/11 11:20:10;;;;;;;9.70;5.53;;;25.40;99.90;;;;;;4957107;28;20183;-83
2021/09/11 11:22:38;;;;;;;11.53;7.03;;;24.90;99.90;;;;;;4973058;28;20277;-84
2021/09/11 11:25:11;;;;;;;9.93;6.27;;;24.70;99.90;;;;;;4974850;28;20198;-83
2021/09/11 11:27:37;;;;;;;11.20;6.87;;;24.40;99.90;;;;;;4973104;28;20261;-83
2021/09/11 11:30:05;;;;;;;11.10;6.00;;;24.40;99.90;;;;;;4968151;28;20187;-83
2021/09/11 11:32:38;;;;;;;11.30;6.30;;;24.40;99.90;;;;;;4960540;28;20653;-84
2021/09/11 11:35:06;;;;;;;15.50;6.93;;;24.40;99.90;;;;;;4960753;28;20229;-83
2021/09/11 11:37:38;;;;;;;9.97;6.73;;;24.20;99.90;;;;;;4984672;28;20278;-85
2021/09/11 11:40:09;;;;;;;11.80;6.70;;;24.20;99.90;;;;;;4978351;28;20230;-83
2021/09/11 11:42:37;;;;;;;16.53;8.03;;;24.10;99.90;;;;;;4975732;28;20194;-83
2021/09/11 11:45:06;;;;;;;11.47;6.47;;;24.10;99.90;;;;;;4978859;28;20195;-84
2021/09/11 11:47:53;;;;;;;13.33;6.93;;;24.00;99.90;;;;;;4957291;28;20175;-83
2021/09/11 11:50:25;;;;;;;11.83;6.23;;;24.10;99.90;;;;;;4973644;28;20603;-82
2021/09/11 11:53:05;;;;;;;10.07;6.37;;;24.10;99.90;;;;;;4972602;28;20262;-83
2021/09/11 11:55:33;;;;;;;12.33;6.23;;;24.10;99.90;;;;;;4955263;28;20221;-82
2021/09/11 11:58:09;;;;;;;10.63;5.23;;;24.00;99.90;;;;;;4974801;28;20206;-83
2021/09/11 12:00:52;;;;;;;9.73;5.40;;;24.00;99.90;;;;;;4970569;28;20270;-82
2021/09/11 12:03:44;;;;;;;9.87;5.03;;;24.20;99.90;;;;;;4974403;28;20297;-83
2021/09/11 12:06:19;;;;;;;9.10;4.63;;;24.60;99.90;;;;;;4943372;28;20558;-83
2021/09/11 12:09:02;;;;;;;10.33;4.67;;;24.60;99.90;;;;;;5086727;27;20571;-76
2021/09/11 12:11:27;;;;;;;7.80;4.50;;;24.70;99.90;;;;;;5066193;28;20722;-76
2021/09/11 12:13:56;;;;;;;8.53;4.60;;;24.70;99.90;;;;;;5065099;28;20278;-76
2021/09/11 12:16:23;;;;;;;9.97;3.87;;;24.60;99.90;;;;;;5065781;28;20263;-76
2021/09/11 12:18:48;;;;;;;7.27;3.80;;;24.60;99.90;;;;;;5065304;28;20596;-76
2021/09/11 12:21:17;;;;;;;9.67;4.20;;;24.50;99.90;;;;;;5066803;28;20342;-76
2021/09/11 12:23:51;;;;;;;9.10;4.27;;;24.50;99.90;;;;;;5081475;28;20188;-77
2021/09/11 12:26:28;;;;;;;6.43;3.77;;;24.40;99.90;;;;;;5064449;28;20187;-77
2021/09/11 12:29:04;;;;;;;8.50;4.30;;;24.40;99.90;;;;;;5063591;28;20203;-77
2021/09/11 12:31:32;;;;;;;8.50;4.10;;;24.50;99.90;;;;;;5063826;28;20650;-76
2021/09/11 12:34:04;;;;;;;10.40;3.80;;;24.50;99.90;;;;;;5064631;28;20669;-76
2021/09/11 12:36:32;;;;;;;6.90;3.30;;;24.30;99.90;;;;;;5063970;28;20554;-76
2021/09/11 12:39:06;;;;;;;6.87;3.30;;;24.30;99.90;;;;;;5066803;28;20203;-76
2021/09/11 12:41:33;;;;;;;7.97;3.87;;;24.30;99.90;;;;;;5065135;28;20176;-76